sensor_id;sensor_type;location;lat;lon;timestamp;P1;durP1;ratioP1;P2;durP2;ratioP2
35693;SDS011;21812;55.536;37.664;2024-02-23T00:02:04;11.55;;;7.70;;
35693;SDS011;21812;55.536;37.664;2024-02-23T00:04:30;13.45;;;10.02;;
35693;SDS011;21812;55.536;37.664;2024-02-23T00:06:56;12.25;;;9.38;;
35693;SDS011;21812;55.536;37.664;2024-02-23T00:09:22;11.50;;;7.70;;
35693;SDS011;21812;55.536;37.664;2024-02-23T00:11:47;10.43;;;7.25;;
35693;SDS011;21812;55.536;37.664;2024-02-23T00:14:15;10.40;;;8.73;;
35693;SDS011;21812;55.536;37.664;2024-02-23T00:16:43;11.32;;;8.32;;
35693;SDS011;21812;55.536;37.664;2024-02-23T00:19:09;13.43;;;9.13;;
35693;SDS011;21812;55.536;37.664;2024-02-23T00:21:36;9.75;;;7.82;;
35693;SDS011;21812;55.536;37.664;2024-02-23T00:24:02;12.00;;;7.68;;
35693;SDS011;21812;55.536;37.664;2024-02-23T00:26:28;16.52;;;11.98;;
35693;SDS011;21812;55.536;37.664;2024-02-23T00:28:55;10.40;;;8.40;;
35693;SDS011;21812;55.536;37.664;2024-02-23T00:31:21;16.30;;;11.52;;
35693;SDS011;21812;55.536;37.664;2024-02-23T00:33:47;9.13;;;6.82;;
35693;SDS011;21812;55.536;37.664;2024-02-23T00:36:12;15.02;;;11.23;;
35693;SDS011;21812;55.536;37.664;2024-02-23T00:38:38;18.10;;;13.80;;
35693;SDS011;21812;55.536;37.664;2024-02-23T00:41:04;12.00;;;9.63;;
35693;SDS011;21812;55.536;37.664;2024-02-23T00:43:30;18.42;;;13.05;;
35693;SDS011;21812;55.536;37.664;2024-02-23T00:46:03;9.07;;;7.45;;
35693;SDS011;21812;55.536;37.664;2024-02-23T00:48:29;12.95;;;9.32;;
35693;SDS011;21812;55.536;37.664;2024-02-23T00:50:55;14.48;;;10.73;;
35693;SDS011;21812;55.536;37.664;2024-02-23T00:53:21;11.02;;;8.73;;
35693;SDS011;21812;55.536;37.664;2024-02-23T00:55:47;10.65;;;7.60;;
35693;SDS011;21812;55.536;37.664;2024-02-23T00:58:13;16.80;;;12.18;;
35693;SDS011;21812;55.536;37.664;2024-02-23T01:00:38;12.45;;;8.60;;
35693;SDS011;21812;55.536;37.664;2024-02-23T01:03:04;15.48;;;10.88;;
35693;SDS011;21812;55.536;37.664;2024-02-23T01:05:30;13.48;;;9.85;;
35693;SDS011;21812;55.536;37.664;2024-02-23T01:07:56;9.95;;;7.32;;
35693;SDS011;21812;55.536;37.664;2024-02-23T01:10:21;8.65;;;6.75;;
35693;SDS011;21812;55.536;37.664;2024-02-23T01:12:47;12.23;;;8.95;;
35693;SDS011;21812;55.536;37.664;2024-02-23T01:15:13;10.77;;;7.57;;
35693;SDS011;21812;55.536;37.664;2024-02-23T01:17:38;8.13;;;6.65;;
35693;SDS011;21812;55.536;37.664;2024-02-23T01:20:04;13.43;;;9.65;;
35693;SDS011;21812;55.536;37.664;2024-02-23T01:22:31;18.38;;;12.70;;
35693;SDS011;21812;55.536;37.664;2024-02-23T01:24:56;10.77;;;8.73;;
35693;SDS011;21812;55.536;37.664;2024-02-23T01:27:22;14.32;;;11.23;;
35693;SDS011;21812;55.536;37.664;2024-02-23T01:29:48;10.23;;;8.40;;
35693;SDS011;21812;55.536;37.664;2024-02-23T01:32:13;10.55;;;7.50;;
35693;SDS011;21812;55.536;37.664;2024-02-23T01:34:39;11.25;;;8.07;;
35693;SDS011;21812;55.536;37.664;2024-02-23T01:37:05;8.50;;;6.65;;
35693;SDS011;21812;55.536;37.664;2024-02-23T01:39:30;18.50;;;13.02;;
35693;SDS011;21812;55.536;37.664;2024-02-23T01:41:56;14.32;;;10.77;;
35693;SDS011;21812;55.536;37.664;2024-02-23T01:44:22;15.02;;;11.52;;
35693;SDS011;21812;55.536;37.664;2024-02-23T01:46:48;10.30;;;7.80;;
35693;SDS011;21812;55.536;37.664;2024-02-23T01:49:15;18.20;;;11.82;;
35693;SDS011;21812;55.536;37.664;2024-02-23T01:51:41;13.55;;;8.55;;
35693;SDS011;21812;55.536;37.664;2024-02-23T01:54:07;20.63;;;12.88;;
35693;SDS011;21812;55.536;37.664;2024-02-23T01:56:34;14.57;;;8.93;;
35693;SDS011;21812;55.536;37.664;2024-02-23T01:59:02;13.15;;;8.27;;
35693;SDS011;21812;55.536;37.664;2024-02-23T02:01:30;24.23;;;14.82;;
35693;SDS011;21812;55.536;37.664;2024-02-23T02:03:57;14.38;;;9.23;;
35693;SDS011;21812;55.536;37.664;2024-02-23T02:06:24;12.68;;;8.80;;
35693;SDS011;21812;55.536;37.664;2024-02-23T02:08:50;10.68;;;7.10;;
35693;SDS011;21812;55.536;37.664;2024-02-23T02:11:16;11.73;;;8.07;;
35693;SDS011;21812;55.536;37.664;2024-02-23T02:13:41;13.27;;;9.68;;
35693;SDS011;21812;55.536;37.664;2024-02-23T02:16:07;13.07;;;9.20;;
35693;SDS011;21812;55.536;37.664;2024-02-23T02:18:33;10.95;;;7.90;;
35693;SDS011;21812;55.536;37.664;2024-02-23T02:20:59;14.85;;;8.52;;
35693;SDS011;21812;55.536;37.664;2024-02-23T02:23:26;18.13;;;10.00;;
35693;SDS011;21812;55.536;37.664;2024-02-23T02:25:55;15.80;;;10.52;;
35693;SDS011;21812;55.536;37.664;2024-02-23T02:28:22;19.83;;;11.02;;
35693;SDS011;21812;55.536;37.664;2024-02-23T02:30:50;11.88;;;8.13;;
35693;SDS011;21812;55.536;37.664;2024-02-23T02:33:18;13.68;;;9.35;;
35693;SDS011;21812;55.536;37.664;2024-02-23T02:35:44;10.80;;;7.47;;
35693;SDS011;21812;55.536;37.664;2024-02-23T02:38:13;15.85;;;11.85;;
35693;SDS011;21812;55.536;37.664;2024-02-23T02:40:38;13.32;;;9.55;;
35693;SDS011;21812;55.536;37.664;2024-02-23T02:43:04;15.50;;;10.75;;
35693;SDS011;21812;55.536;37.664;2024-02-23T02:45:31;9.68;;;7.22;;
35693;SDS011;21812;55.536;37.664;2024-02-23T02:47:56;11.50;;;8.02;;
35693;SDS011;21812;55.536;37.664;2024-02-23T02:50:22;15.52;;;10.68;;
35693;SDS011;21812;55.536;37.664;2024-02-23T02:52:48;13.73;;;9.07;;
35693;SDS011;21812;55.536;37.664;2024-02-23T02:55:13;11.63;;;8.27;;
35693;SDS011;21812;55.536;37.664;2024-02-23T02:57:39;16.05;;;9.13;;
35693;SDS011;21812;55.536;37.664;2024-02-23T03:00:05;9.93;;;6.70;;
35693;SDS011;21812;55.536;37.664;2024-02-23T03:02:35;11.40;;;7.55;;
35693;SDS011;21812;55.536;37.664;2024-02-23T03:05:01;12.63;;;8.20;;
35693;SDS011;21812;55.536;37.664;2024-02-23T03:07:26;12.32;;;7.75;;
35693;SDS011;21812;55.536;37.664;2024-02-23T03:09:52;22.35;;;10.20;;
35693;SDS011;21812;55.536;37.664;2024-02-23T03:12:18;17.77;;;12.93;;
35693;SDS011;21812;55.536;37.664;2024-02-23T03:14:44;23.60;;;7.97;;
35693;SDS011;21812;55.536;37.664;2024-02-23T03:17:09;16.10;;;11.05;;
35693;SDS011;21812;55.536;37.664;2024-02-23T03:19:35;18.10;;;10.85;;
35693;SDS011;21812;55.536;37.664;2024-02-23T03:22:02;12.27;;;8.25;;
35693;SDS011;21812;55.536;37.664;2024-02-23T03:24:28;15.38;;;9.82;;
35693;SDS011;21812;55.536;37.664;2024-02-23T03:26:54;13.38;;;9.40;;
35693;SDS011;21812;55.536;37.664;2024-02-23T03:29:20;16.88;;;12.20;;
35693;SDS011;21812;55.536;37.664;2024-02-23T03:31:52;21.20;;;12.77;;
35693;SDS011;21812;55.536;37.664;2024-02-23T03:34:17;16.92;;;12.25;;
35693;SDS011;21812;55.536;37.664;2024-02-23T03:36:43;18.13;;;9.93;;
35693;SDS011;21812;55.536;37.664;2024-02-23T03:39:09;13.75;;;9.77;;
35693;SDS011;21812;55.536;37.664;2024-02-23T03:41:35;24.42;;;13.18;;
35693;SDS011;21812;55.536;37.664;2024-02-23T03:44:01;15.70;;;11.25;;
35693;SDS011;21812;55.536;37.664;2024-02-23T03:46:27;15.63;;;12.13;;
35693;SDS011;21812;55.536;37.664;2024-02-23T03:48:52;16.77;;;10.93;;
35693;SDS011;21812;55.536;37.664;2024-02-23T03:51:18;10.80;;;7.93;;
35693;SDS011;21812;55.536;37.664;2024-02-23T03:53:44;15.75;;;9.80;;
35693;SDS011;21812;55.536;37.664;2024-02-23T03:56:09;13.77;;;8.98;;
35693;SDS011;21812;55.536;37.664;2024-02-23T03:58:35;14.82;;;9.73;;
35693;SDS011;21812;55.536;37.664;2024-02-23T04:01:01;15.10;;;10.75;;
35693;SDS011;21812;55.536;37.664;2024-02-23T04:03:26;22.38;;;13.98;;
35693;SDS011;21812;55.536;37.664;2024-02-23T04:05:52;15.82;;;11.10;;
35693;SDS011;21812;55.536;37.664;2024-02-23T04:08:18;20.70;;;12.60;;
35693;SDS011;21812;55.536;37.664;2024-02-23T04:10:43;12.00;;;7.97;;
35693;SDS011;21812;55.536;37.664;2024-02-23T04:13:09;17.65;;;11.63;;
35693;SDS011;21812;55.536;37.664;2024-02-23T04:15:39;17.35;;;10.13;;
35693;SDS011;21812;55.536;37.664;2024-02-23T04:18:05;15.13;;;9.32;;
35693;SDS011;21812;55.536;37.664;2024-02-23T04:20:31;19.00;;;11.68;;
35693;SDS011;21812;55.536;37.664;2024-02-23T04:22:58;13.45;;;10.20;;
35693;SDS011;21812;55.536;37.664;2024-02-23T04:25:24;19.98;;;10.82;;
35693;SDS011;21812;55.536;37.664;2024-02-23T04:27:49;17.73;;;11.07;;
35693;SDS011;21812;55.536;37.664;2024-02-23T04:30:15;11.75;;;8.32;;
35693;SDS011;21812;55.536;37.664;2024-02-23T04:32:41;19.08;;;11.52;;
35693;SDS011;21812;55.536;37.664;2024-02-23T04:35:07;15.05;;;9.95;;
35693;SDS011;21812;55.536;37.664;2024-02-23T04:37:33;13.10;;;9.23;;
35693;SDS011;21812;55.536;37.664;2024-02-23T04:39:59;10.48;;;7.28;;
35693;SDS011;21812;55.536;37.664;2024-02-23T04:42:25;15.77;;;10.05;;
35693;SDS011;21812;55.536;37.664;2024-02-23T04:44:50;11.55;;;8.95;;
35693;SDS011;21812;55.536;37.664;2024-02-23T04:47:19;18.45;;;12.30;;
35693;SDS011;21812;55.536;37.664;2024-02-23T04:49:45;19.08;;;11.43;;
35693;SDS011;21812;55.536;37.664;2024-02-23T04:52:11;14.35;;;9.45;;
35693;SDS011;21812;55.536;37.664;2024-02-23T04:54:36;16.23;;;10.45;;
35693;SDS011;21812;55.536;37.664;2024-02-23T04:57:02;12.13;;;7.93;;
35693;SDS011;21812;55.536;37.664;2024-02-23T04:59:28;13.50;;;8.98;;
35693;SDS011;21812;55.536;37.664;2024-02-23T05:01:55;20.13;;;13.18;;
35693;SDS011;21812;55.536;37.664;2024-02-23T05:04:21;15.68;;;9.25;;
35693;SDS011;21812;55.536;37.664;2024-02-23T05:06:46;16.13;;;10.63;;
35693;SDS011;21812;55.536;37.664;2024-02-23T05:09:12;13.20;;;8.73;;
35693;SDS011;21812;55.536;37.664;2024-02-23T05:11:38;11.15;;;7.80;;
35693;SDS011;21812;55.536;37.664;2024-02-23T05:14:04;13.40;;;8.63;;
35693;SDS011;21812;55.536;37.664;2024-02-23T05:16:31;15.00;;;8.38;;
35693;SDS011;21812;55.536;37.664;2024-02-23T05:18:57;17.77;;;11.75;;
35693;SDS011;21812;55.536;37.664;2024-02-23T05:21:23;10.38;;;7.25;;
35693;SDS011;21812;55.536;37.664;2024-02-23T05:23:49;14.60;;;7.90;;
35693;SDS011;21812;55.536;37.664;2024-02-23T05:26:15;12.85;;;8.32;;
35693;SDS011;21812;55.536;37.664;2024-02-23T05:28:40;13.68;;;7.80;;
35693;SDS011;21812;55.536;37.664;2024-02-23T05:31:06;13.30;;;7.63;;
35693;SDS011;21812;55.536;37.664;2024-02-23T05:33:34;19.20;;;11.90;;
35693;SDS011;21812;55.536;37.664;2024-02-23T05:36:00;13.57;;;8.35;;
35693;SDS011;21812;55.536;37.664;2024-02-23T05:38:25;14.30;;;8.20;;
35693;SDS011;21812;55.536;37.664;2024-02-23T05:40:51;13.98;;;8.73;;
35693;SDS011;21812;55.536;37.664;2024-02-23T05:43:17;16.00;;;11.25;;
35693;SDS011;21812;55.536;37.664;2024-02-23T05:45:42;11.48;;;7.22;;
35693;SDS011;21812;55.536;37.664;2024-02-23T05:48:09;14.73;;;9.90;;
35693;SDS011;21812;55.536;37.664;2024-02-23T05:50:35;20.15;;;11.93;;
35693;SDS011;21812;55.536;37.664;2024-02-23T05:53:00;16.52;;;8.30;;
35693;SDS011;21812;55.536;37.664;2024-02-23T05:55:26;15.57;;;8.52;;
35693;SDS011;21812;55.536;37.664;2024-02-23T05:57:51;17.83;;;10.63;;
35693;SDS011;21812;55.536;37.664;2024-02-23T06:00:17;15.85;;;9.70;;
35693;SDS011;21812;55.536;37.664;2024-02-23T06:02:47;14.88;;;8.90;;
35693;SDS011;21812;55.536;37.664;2024-02-23T06:05:13;14.50;;;8.20;;
35693;SDS011;21812;55.536;37.664;2024-02-23T06:07:38;12.82;;;8.15;;
35693;SDS011;21812;55.536;37.664;2024-02-23T06:10:05;12.50;;;9.07;;
35693;SDS011;21812;55.536;37.664;2024-02-23T06:12:31;16.05;;;8.68;;
35693;SDS011;21812;55.536;37.664;2024-02-23T06:14:57;17.88;;;11.40;;
35693;SDS011;21812;55.536;37.664;2024-02-23T06:17:23;15.05;;;8.40;;
35693;SDS011;21812;55.536;37.664;2024-02-23T06:19:50;12.63;;;8.05;;
35693;SDS011;21812;55.536;37.664;2024-02-23T06:22:17;13.80;;;8.70;;
35693;SDS011;21812;55.536;37.664;2024-02-23T06:24:48;14.35;;;9.23;;
35693;SDS011;21812;55.536;37.664;2024-02-23T06:27:14;16.13;;;10.60;;
35693;SDS011;21812;55.536;37.664;2024-02-23T06:29:40;12.50;;;8.73;;
35693;SDS011;21812;55.536;37.664;2024-02-23T06:32:06;14.00;;;8.80;;
35693;SDS011;21812;55.536;37.664;2024-02-23T06:34:31;14.75;;;9.25;;
35693;SDS011;21812;55.536;37.664;2024-02-23T06:36:57;21.00;;;12.77;;
35693;SDS011;21812;55.536;37.664;2024-02-23T06:39:23;16.23;;;9.48;;
35693;SDS011;21812;55.536;37.664;2024-02-23T06:41:49;13.00;;;9.48;;
35693;SDS011;21812;55.536;37.664;2024-02-23T06:44:15;17.55;;;9.70;;
35693;SDS011;21812;55.536;37.664;2024-02-23T06:46:40;15.55;;;8.20;;
35693;SDS011;21812;55.536;37.664;2024-02-23T06:49:06;13.88;;;8.20;;
35693;SDS011;21812;55.536;37.664;2024-02-23T06:51:33;12.15;;;8.52;;
35693;SDS011;21812;55.536;37.664;2024-02-23T06:53:59;13.55;;;9.35;;
35693;SDS011;21812;55.536;37.664;2024-02-23T06:56:24;12.75;;;8.35;;
35693;SDS011;21812;55.536;37.664;2024-02-23T06:58:50;17.83;;;10.82;;
35693;SDS011;21812;55.536;37.664;2024-02-23T07:01:16;16.50;;;9.75;;
35693;SDS011;21812;55.536;37.664;2024-02-23T07:03:41;18.08;;;9.73;;
35693;SDS011;21812;55.536;37.664;2024-02-23T07:06:09;12.90;;;8.10;;
35693;SDS011;21812;55.536;37.664;2024-02-23T07:08:38;13.40;;;9.35;;
35693;SDS011;21812;55.536;37.664;2024-02-23T07:11:03;14.73;;;7.75;;
35693;SDS011;21812;55.536;37.664;2024-02-23T07:13:29;13.68;;;7.72;;
35693;SDS011;21812;55.536;37.664;2024-02-23T07:15:55;13.68;;;9.63;;
35693;SDS011;21812;55.536;37.664;2024-02-23T07:18:21;16.35;;;11.13;;
35693;SDS011;21812;55.536;37.664;2024-02-23T07:20:47;11.40;;;7.18;;
35693;SDS011;21812;55.536;37.664;2024-02-23T07:23:13;11.13;;;8.10;;
35693;SDS011;21812;55.536;37.664;2024-02-23T07:25:41;14.57;;;7.18;;
35693;SDS011;21812;55.536;37.664;2024-02-23T07:28:07;13.85;;;7.97;;
35693;SDS011;21812;55.536;37.664;2024-02-23T07:30:33;17.20;;;10.88;;
35693;SDS011;21812;55.536;37.664;2024-02-23T07:33:00;16.80;;;8.65;;
35693;SDS011;21812;55.536;37.664;2024-02-23T07:35:26;16.70;;;7.38;;
35693;SDS011;21812;55.536;37.664;2024-02-23T07:37:52;20.98;;;11.68;;
35693;SDS011;21812;55.536;37.664;2024-02-23T07:40:18;17.30;;;10.65;;
35693;SDS011;21812;55.536;37.664;2024-02-23T07:42:44;11.25;;;7.88;;
35693;SDS011;21812;55.536;37.664;2024-02-23T07:45:09;15.68;;;9.48;;
35693;SDS011;21812;55.536;37.664;2024-02-23T07:47:36;12.23;;;8.25;;
35693;SDS011;21812;55.536;37.664;2024-02-23T07:50:01;21.45;;;12.07;;
35693;SDS011;21812;55.536;37.664;2024-02-23T07:52:30;14.82;;;10.27;;
35693;SDS011;21812;55.536;37.664;2024-02-23T07:54:55;11.15;;;7.53;;
35693;SDS011;21812;55.536;37.664;2024-02-23T07:57:21;18.50;;;9.40;;
35693;SDS011;21812;55.536;37.664;2024-02-23T07:59:47;13.82;;;7.75;;
35693;SDS011;21812;55.536;37.664;2024-02-23T08:02:14;17.45;;;9.43;;
35693;SDS011;21812;55.536;37.664;2024-02-23T08:04:40;16.20;;;10.85;;
35693;SDS011;21812;55.536;37.664;2024-02-23T08:07:07;16.60;;;10.98;;
35693;SDS011;21812;55.536;37.664;2024-02-23T08:09:33;11.48;;;8.23;;
35693;SDS011;21812;55.536;37.664;2024-02-23T08:11:59;14.43;;;8.38;;
35693;SDS011;21812;55.536;37.664;2024-02-23T08:14:25;12.65;;;8.32;;
35693;SDS011;21812;55.536;37.664;2024-02-23T08:16:50;11.75;;;7.75;;
35693;SDS011;21812;55.536;37.664;2024-02-23T08:19:16;11.75;;;8.00;;
35693;SDS011;21812;55.536;37.664;2024-02-23T08:21:42;13.70;;;8.15;;
35693;SDS011;21812;55.536;37.664;2024-02-23T08:24:09;13.18;;;9.05;;
35693;SDS011;21812;55.536;37.664;2024-02-23T08:26:35;11.77;;;8.25;;
35693;SDS011;21812;55.536;37.664;2024-02-23T08:29:03;13.48;;;8.73;;
35693;SDS011;21812;55.536;37.664;2024-02-23T08:31:30;11.77;;;6.88;;
35693;SDS011;21812;55.536;37.664;2024-02-23T08:33:56;16.20;;;8.18;;
35693;SDS011;21812;55.536;37.664;2024-02-23T08:36:22;12.52;;;7.38;;
35693;SDS011;21812;55.536;37.664;2024-02-23T08:38:47;17.30;;;7.65;;
35693;SDS011;21812;55.536;37.664;2024-02-23T08:41:13;16.88;;;8.38;;
35693;SDS011;21812;55.536;37.664;2024-02-23T08:43:39;26.40;;;13.88;;
35693;SDS011;21812;55.536;37.664;2024-02-23T08:46:04;99.07;;;61.60;;
35693;SDS011;21812;55.536;37.664;2024-02-23T08:48:30;80.85;;;50.88;;
35693;SDS011;21812;55.536;37.664;2024-02-23T08:50:56;44.08;;;22.33;;
35693;SDS011;21812;55.536;37.664;2024-02-23T08:53:22;27.25;;;15.63;;
35693;SDS011;21812;55.536;37.664;2024-02-23T08:55:47;27.73;;;16.35;;
35693;SDS011;21812;55.536;37.664;2024-02-23T08:58:13;28.63;;;15.57;;
35693;SDS011;21812;55.536;37.664;2024-02-23T09:00:39;21.42;;;12.77;;
35693;SDS011;21812;55.536;37.664;2024-02-23T09:03:04;25.85;;;13.75;;
35693;SDS011;21812;55.536;37.664;2024-02-23T09:05:30;31.25;;;13.85;;
35693;SDS011;21812;55.536;37.664;2024-02-23T09:07:56;24.73;;;12.43;;
35693;SDS011;21812;55.536;37.664;2024-02-23T09:10:22;22.38;;;10.82;;
35693;SDS011;21812;55.536;37.664;2024-02-23T09:12:47;66.45;;;19.27;;
35693;SDS011;21812;55.536;37.664;2024-02-23T09:15:15;37.30;;;16.50;;
35693;SDS011;21812;55.536;37.664;2024-02-23T09:17:41;106.47;;;36.13;;
35693;SDS011;21812;55.536;37.664;2024-02-23T09:20:07;68.35;;;25.38;;
35693;SDS011;21812;55.536;37.664;2024-02-23T09:22:33;52.20;;;21.25;;
35693;SDS011;21812;55.536;37.664;2024-02-23T09:24:59;40.58;;;14.73;;
35693;SDS011;21812;55.536;37.664;2024-02-23T09:27:25;27.92;;;12.98;;
35693;SDS011;21812;55.536;37.664;2024-02-23T09:29:50;26.90;;;12.77;;
35693;SDS011;21812;55.536;37.664;2024-02-23T09:32:16;21.83;;;12.85;;
35693;SDS011;21812;55.536;37.664;2024-02-23T09:34:42;27.00;;;13.75;;
35693;SDS011;21812;55.536;37.664;2024-02-23T09:37:08;21.85;;;11.32;;
35693;SDS011;21812;55.536;37.664;2024-02-23T09:39:33;28.90;;;12.57;;
35693;SDS011;21812;55.536;37.664;2024-02-23T09:41:59;30.65;;;14.68;;
35693;SDS011;21812;55.536;37.664;2024-02-23T09:44:32;27.63;;;14.75;;
35693;SDS011;21812;55.536;37.664;2024-02-23T09:47:01;23.48;;;12.80;;
35693;SDS011;21812;55.536;37.664;2024-02-23T09:49:37;30.55;;;13.68;;
35693;SDS011;21812;55.536;37.664;2024-02-23T09:52:06;23.55;;;12.38;;
35693;SDS011;21812;55.536;37.664;2024-02-23T09:54:35;22.52;;;13.55;;
35693;SDS011;21812;55.536;37.664;2024-02-23T09:57:02;24.95;;;12.70;;
35693;SDS011;21812;55.536;37.664;2024-02-23T09:59:37;29.45;;;9.95;;
35693;SDS011;21812;55.536;37.664;2024-02-23T10:02:09;33.55;;;12.68;;
35693;SDS011;21812;55.536;37.664;2024-02-23T10:04:39;20.38;;;12.35;;
35693;SDS011;21812;55.536;37.664;2024-02-23T10:07:08;20.55;;;12.60;;
35693;SDS011;21812;55.536;37.664;2024-02-23T10:09:34;20.05;;;12.60;;
35693;SDS011;21812;55.536;37.664;2024-02-23T10:12:01;15.98;;;9.98;;
35693;SDS011;21812;55.536;37.664;2024-02-23T10:14:27;18.75;;;9.65;;
35693;SDS011;21812;55.536;37.664;2024-02-23T10:16:53;17.25;;;10.13;;
35693;SDS011;21812;55.536;37.664;2024-02-23T10:19:20;12.63;;;7.25;;
35693;SDS011;21812;55.536;37.664;2024-02-23T10:21:47;15.43;;;8.38;;
35693;SDS011;21812;55.536;37.664;2024-02-23T10:24:15;16.95;;;9.25;;
35693;SDS011;21812;55.536;37.664;2024-02-23T10:26:42;17.02;;;11.77;;
35693;SDS011;21812;55.536;37.664;2024-02-23T10:29:08;18.00;;;10.85;;
35693;SDS011;21812;55.536;37.664;2024-02-23T10:31:36;16.27;;;10.10;;
35693;SDS011;21812;55.536;37.664;2024-02-23T10:34:05;21.98;;;8.63;;
35693;SDS011;21812;55.536;37.664;2024-02-23T10:36:36;14.25;;;8.32;;
35693;SDS011;21812;55.536;37.664;2024-02-23T10:39:05;15.57;;;9.27;;
35693;SDS011;21812;55.536;37.664;2024-02-23T10:41:34;18.52;;;10.18;;
35693;SDS011;21812;55.536;37.664;2024-02-23T10:44:01;14.60;;;7.53;;
35693;SDS011;21812;55.536;37.664;2024-02-23T10:46:29;19.25;;;11.07;;
35693;SDS011;21812;55.536;37.664;2024-02-23T10:48:56;14.90;;;9.90;;
35693;SDS011;21812;55.536;37.664;2024-02-23T10:51:27;14.20;;;8.95;;
35693;SDS011;21812;55.536;37.664;2024-02-23T10:53:53;15.32;;;8.73;;
35693;SDS011;21812;55.536;37.664;2024-02-23T10:56:20;15.52;;;8.73;;
35693;SDS011;21812;55.536;37.664;2024-02-23T10:58:47;11.80;;;7.80;;
35693;SDS011;21812;55.536;37.664;2024-02-23T11:01:14;16.90;;;10.98;;
35693;SDS011;21812;55.536;37.664;2024-02-23T11:03:41;19.88;;;11.60;;
35693;SDS011;21812;55.536;37.664;2024-02-23T11:06:09;12.15;;;7.75;;
35693;SDS011;21812;55.536;37.664;2024-02-23T11:08:36;18.85;;;10.38;;
35693;SDS011;21812;55.536;37.664;2024-02-23T11:11:08;20.98;;;13.07;;
35693;SDS011;21812;55.536;37.664;2024-02-23T11:13:34;16.00;;;8.48;;
35693;SDS011;21812;55.536;37.664;2024-02-23T11:16:07;16.02;;;9.68;;
35693;SDS011;21812;55.536;37.664;2024-02-23T11:18:38;16.60;;;9.27;;
35693;SDS011;21812;55.536;37.664;2024-02-23T11:21:05;20.35;;;12.63;;
35693;SDS011;21812;55.536;37.664;2024-02-23T11:23:45;17.55;;;10.27;;
35693;SDS011;21812;55.536;37.664;2024-02-23T11:26:15;13.48;;;8.60;;
35693;SDS011;21812;55.536;37.664;2024-02-23T11:28:41;17.27;;;11.05;;
35693;SDS011;21812;55.536;37.664;2024-02-23T11:31:11;16.80;;;8.32;;
35693;SDS011;21812;55.536;37.664;2024-02-23T11:33:38;16.08;;;9.60;;
35693;SDS011;21812;55.536;37.664;2024-02-23T11:36:04;29.88;;;15.90;;
35693;SDS011;21812;55.536;37.664;2024-02-23T11:38:33;30.05;;;15.15;;
35693;SDS011;21812;55.536;37.664;2024-02-23T11:41:03;28.23;;;15.65;;
35693;SDS011;21812;55.536;37.664;2024-02-23T11:43:30;29.27;;;15.98;;
35693;SDS011;21812;55.536;37.664;2024-02-23T11:45:56;26.65;;;15.05;;
35693;SDS011;21812;55.536;37.664;2024-02-23T11:48:23;28.45;;;14.77;;
35693;SDS011;21812;55.536;37.664;2024-02-23T11:50:48;29.73;;;17.15;;
35693;SDS011;21812;55.536;37.664;2024-02-23T11:53:14;32.55;;;16.45;;
35693;SDS011;21812;55.536;37.664;2024-02-23T11:55:41;30.55;;;15.20;;
35693;SDS011;21812;55.536;37.664;2024-02-23T11:58:07;38.28;;;17.17;;
35693;SDS011;21812;55.536;37.664;2024-02-23T12:00:34;33.03;;;15.35;;
35693;SDS011;21812;55.536;37.664;2024-02-23T12:03:00;35.50;;;16.50;;
35693;SDS011;21812;55.536;37.664;2024-02-23T12:05:26;30.17;;;15.48;;
35693;SDS011;21812;55.536;37.664;2024-02-23T12:07:52;31.48;;;16.00;;
35693;SDS011;21812;55.536;37.664;2024-02-23T12:10:18;32.90;;;17.13;;
35693;SDS011;21812;55.536;37.664;2024-02-23T12:12:44;34.63;;;16.73;;
35693;SDS011;21812;55.536;37.664;2024-02-23T12:15:10;33.60;;;17.40;;
35693;SDS011;21812;55.536;37.664;2024-02-23T12:17:36;34.88;;;17.40;;
35693;SDS011;21812;55.536;37.664;2024-02-23T12:20:03;37.03;;;17.15;;
35693;SDS011;21812;55.536;37.664;2024-02-23T12:22:29;46.67;;;18.05;;
35693;SDS011;21812;55.536;37.664;2024-02-23T12:24:58;40.65;;;17.65;;
35693;SDS011;21812;55.536;37.664;2024-02-23T12:27:25;37.80;;;18.65;;
35693;SDS011;21812;55.536;37.664;2024-02-23T12:29:52;32.47;;;15.68;;
35693;SDS011;21812;55.536;37.664;2024-02-23T12:32:19;41.80;;;20.80;;
35693;SDS011;21812;55.536;37.664;2024-02-23T12:34:47;36.15;;;18.52;;
35693;SDS011;21812;55.536;37.664;2024-02-23T12:37:18;44.90;;;18.25;;
35693;SDS011;21812;55.536;37.664;2024-02-23T12:39:44;45.28;;;20.02;;
35693;SDS011;21812;55.536;37.664;2024-02-23T12:42:10;41.28;;;18.85;;
35693;SDS011;21812;55.536;37.664;2024-02-23T12:44:36;36.85;;;18.13;;
35693;SDS011;21812;55.536;37.664;2024-02-23T12:47:01;39.92;;;18.35;;
35693;SDS011;21812;55.536;37.664;2024-02-23T12:49:28;39.95;;;19.10;;
35693;SDS011;21812;55.536;37.664;2024-02-23T12:51:54;41.78;;;18.08;;
35693;SDS011;21812;55.536;37.664;2024-02-23T12:54:21;41.00;;;19.27;;
35693;SDS011;21812;55.536;37.664;2024-02-23T12:56:46;44.42;;;19.70;;
35693;SDS011;21812;55.536;37.664;2024-02-23T12:59:12;41.25;;;18.23;;
35693;SDS011;21812;55.536;37.664;2024-02-23T13:01:38;40.10;;;18.98;;
35693;SDS011;21812;55.536;37.664;2024-02-23T13:04:06;38.97;;;17.50;;
35693;SDS011;21812;55.536;37.664;2024-02-23T13:06:37;39.58;;;18.92;;
35693;SDS011;21812;55.536;37.664;2024-02-23T13:09:03;47.40;;;20.55;;
35693;SDS011;21812;55.536;37.664;2024-02-23T13:11:30;43.38;;;17.85;;
35693;SDS011;21812;55.536;37.664;2024-02-23T13:13:56;46.00;;;22.08;;
35693;SDS011;21812;55.536;37.664;2024-02-23T13:16:22;43.03;;;19.20;;
35693;SDS011;21812;55.536;37.664;2024-02-23T13:18:47;38.38;;;19.52;;
35693;SDS011;21812;55.536;37.664;2024-02-23T13:21:14;46.50;;;21.67;;
35693;SDS011;21812;55.536;37.664;2024-02-23T13:23:39;41.45;;;19.30;;
35693;SDS011;21812;55.536;37.664;2024-02-23T13:26:07;45.25;;;20.50;;
35693;SDS011;21812;55.536;37.664;2024-02-23T13:28:33;43.28;;;19.13;;
35693;SDS011;21812;55.536;37.664;2024-02-23T13:30:58;44.78;;;20.95;;
35693;SDS011;21812;55.536;37.664;2024-02-23T13:33:24;47.30;;;19.65;;
35693;SDS011;21812;55.536;37.664;2024-02-23T13:35:51;44.08;;;21.00;;
35693;SDS011;21812;55.536;37.664;2024-02-23T13:38:16;45.25;;;21.50;;
35693;SDS011;21812;55.536;37.664;2024-02-23T13:40:42;44.05;;;19.77;;
35693;SDS011;21812;55.536;37.664;2024-02-23T13:43:08;43.40;;;20.17;;
35693;SDS011;21812;55.536;37.664;2024-02-23T13:45:47;55.97;;;23.67;;
35693;SDS011;21812;55.536;37.664;2024-02-23T13:48:17;41.80;;;21.45;;
35693;SDS011;21812;55.536;37.664;2024-02-23T13:50:44;48.65;;;20.95;;
35693;SDS011;21812;55.536;37.664;2024-02-23T13:53:13;47.63;;;20.00;;
35693;SDS011;21812;55.536;37.664;2024-02-23T13:55:39;50.70;;;21.70;;
35693;SDS011;21812;55.536;37.664;2024-02-23T13:58:07;47.80;;;19.88;;
35693;SDS011;21812;55.536;37.664;2024-02-23T14:00:32;50.00;;;21.70;;
35693;SDS011;21812;55.536;37.664;2024-02-23T14:02:59;54.50;;;22.25;;
35693;SDS011;21812;55.536;37.664;2024-02-23T14:05:25;48.55;;;22.95;;
35693;SDS011;21812;55.536;37.664;2024-02-23T14:07:51;48.22;;;22.27;;
35693;SDS011;21812;55.536;37.664;2024-02-23T14:10:19;48.85;;;24.55;;
35693;SDS011;21812;55.536;37.664;2024-02-23T14:12:45;50.10;;;22.38;;